sensor_id;sensor_type;location;lat;lon;timestamp;temperature;humidity
1992;DHT22;997;48.448;8.924;2023-04-05T03:03:01;1.80;99.90
1992;DHT22;997;48.448;8.924;2023-04-05T03:05:26;1.70;99.90
1992;DHT22;997;48.448;8.924;2023-04-05T03:07:53;1.70;99.90
1992;DHT22;997;48.448;8.924;2023-04-05T03:10:20;1.70;99.90
1992;DHT22;997;48.448;8.924;2023-04-05T03:12:53;1.60;99.90
1992;DHT22;997;48.448;8.924;2023-04-05T10:30:53;7.50;94.60
1992;DHT22;997;48.448;8.924;2023-04-05T10:47:18;8.10;94.60
1992;DHT22;997;48.448;8.924;2023-04-05T10:49:48;8.20;92.60
1992;DHT22;997;48.448;8.924;2023-04-05T10:52:43;8.30;91.90
1992;DHT22;997;48.448;8.924;2023-04-05T10:55:39;8.50;90.70
1992;DHT22;997;48.448;8.924;2023-04-05T10:58:06;8.50;92.40
1992;DHT22;997;48.448;8.924;2023-04-05T11:00:32;8.60;94.40
1992;DHT22;997;48.448;8.924;2023-04-05T11:09:07;8.50;88.70
1992;DHT22;997;48.448;8.924;2023-04-05T11:11:39;8.30;88.30
1992;DHT22;997;48.448;8.924;2023-04-05T11:14:40;8.00;88.80
1992;DHT22;997;48.448;8.924;2023-04-05T11:17:23;8.20;91.50
1992;DHT22;997;48.448;8.924;2023-04-05T11:19:50;8.30;90.20
1992;DHT22;997;48.448;8.924;2023-04-05T11:22:27;8.10;85.60
1992;DHT22;997;48.448;8.924;2023-04-05T11:24:58;8.20;93.60
1992;DHT22;997;48.448;8.924;2023-04-05T11:27:34;8.30;91.70
1992;DHT22;997;48.448;8.924;2023-04-05T11:30:05;8.30;89.50
1992;DHT22;997;48.448;8.924;2023-04-05T11:32:41;8.40;92.60
1992;DHT22;997;48.448;8.924;2023-04-05T11:35:13;8.40;84.60
1992;DHT22;997;48.448;8.924;2023-04-05T11:43:09;8.70;86.00
1992;DHT22;997;48.448;8.924;2023-04-05T11:45:37;8.80;88.20
1992;DHT22;997;48.448;8.924;2023-04-05T11:48:11;8.80;88.50
1992;DHT22;997;48.448;8.924;2023-04-05T11:50:39;9.10;90.80
1992;DHT22;997;48.448;8.924;2023-04-05T11:53:10;9.20;86.00
1992;DHT22;997;48.448;8.924;2023-04-05T11:55:37;9.10;81.80
1992;DHT22;997;48.448;8.924;2023-04-05T11:58:20;9.20;91.50
1992;DHT22;997;48.448;8.924;2023-04-05T12:00:57;9.20;87.60
1992;DHT22;997;48.448;8.924;2023-04-05T12:03:23;9.20;80.10
1992;DHT22;997;48.448;8.924;2023-04-05T12:05:54;9.30;86.60
1992;DHT22;997;48.448;8.924;2023-04-05T12:08:22;9.50;84.90
1992;DHT22;997;48.448;8.924;2023-04-05T12:10:57;9.60;81.20
1992;DHT22;997;48.448;8.924;2023-04-05T12:13:31;9.60;81.40
1992;DHT22;997;48.448;8.924;2023-04-05T12:16:02;9.50;78.50
1992;DHT22;997;48.448;8.924;2023-04-05T12:18:34;9.60;79.60
1992;DHT22;997;48.448;8.924;2023-04-05T12:21:05;9.80;86.20
1992;DHT22;997;48.448;8.924;2023-04-05T12:23:31;10.00;82.00
1992;DHT22;997;48.448;8.924;2023-04-05T12:25:57;9.90;79.00
1992;DHT22;997;48.448;8.924;2023-04-05T12:28:23;9.80;81.40
1992;DHT22;997;48.448;8.924;2023-04-05T12:30:56;9.80;85.90
1992;DHT22;997;48.448;8.924;2023-04-05T12:33:27;10.00;83.60
1992;DHT22;997;48.448;8.924;2023-04-05T12:35:53;10.30;81.80
1992;DHT22;997;48.448;8.924;2023-04-05T12:38:19;10.40;81.90
1992;DHT22;997;48.448;8.924;2023-04-05T12:40:45;10.40;77.80
1992;DHT22;997;48.448;8.924;2023-04-05T12:43:11;10.40;78.30
1992;DHT22;997;48.448;8.924;2023-04-05T12:45:44;10.50;76.00
1992;DHT22;997;48.448;8.924;2023-04-05T12:48:12;10.50;75.20
1992;DHT22;997;48.448;8.924;2023-04-05T12:50:42;10.50;74.10
1992;DHT22;997;48.448;8.924;2023-04-05T14:13:19;14.10;57.60
1992;DHT22;997;48.448;8.924;2023-04-05T14:15:45;13.60;54.10
1992;DHT22;997;48.448;8.924;2023-04-05T14:18:11;13.40;54.90
1992;DHT22;997;48.448;8.924;2023-04-05T14:20:36;13.40;57.10
1992;DHT22;997;48.448;8.924;2023-04-05T14:23:02;13.30;56.80
1992;DHT22;997;48.448;8.924;2023-04-05T14:25:29;13.30;56.80
1992;DHT22;997;48.448;8.924;2023-04-05T14:27:55;13.30;59.40
1992;DHT22;997;48.448;8.924;2023-04-05T14:30:20;13.00;56.90
1992;DHT22;997;48.448;8.924;2023-04-05T14:32:46;13.30;57.40
1992;DHT22;997;48.448;8.924;2023-04-05T14:35:12;13.60;57.20
1992;DHT22;997;48.448;8.924;2023-04-05T14:37:37;13.60;56.10
1992;DHT22;997;48.448;8.924;2023-04-05T14:40:03;13.80;55.20
1992;DHT22;997;48.448;8.924;2023-04-05T14:42:29;13.90;53.70
1992;DHT22;997;48.448;8.924;2023-04-05T14:44:55;14.00;53.80
1992;DHT22;997;48.448;8.924;2023-04-05T14:47:21;14.00;53.20
1992;DHT22;997;48.448;8.924;2023-04-05T14:49:46;14.30;54.70
1992;DHT22;997;48.448;8.924;2023-04-05T14:52:12;14.80;53.70
1992;DHT22;997;48.448;8.924;2023-04-05T14:54:38;14.90;51.40
1992;DHT22;997;48.448;8.924;2023-04-05T14:57:03;14.80;52.20
1992;DHT22;997;48.448;8.924;2023-04-05T14:59:29;14.50;50.80
1992;DHT22;997;48.448;8.924;2023-04-05T15:01:55;14.40;51.00
1992;DHT22;997;48.448;8.924;2023-04-05T15:04:21;14.50;52.50
1992;DHT22;997;48.448;8.924;2023-04-05T15:06:47;15.20;53.80
1992;DHT22;997;48.448;8.924;2023-04-05T15:09:13;15.90;53.20
1992;DHT22;997;48.448;8.924;2023-04-05T15:11:38;15.90;50.10
1992;DHT22;997;48.448;8.924;2023-04-05T15:14:05;15.90;51.40
1992;DHT22;997;48.448;8.924;2023-04-05T15:16:31;16.30;50.90
1992;DHT22;997;48.448;8.924;2023-04-05T15:18:57;16.90;50.90
1992;DHT22;997;48.448;8.924;2023-04-05T15:21:25;17.70;50.50
1992;DHT22;997;48.448;8.924;2023-04-05T15:23:51;18.10;50.70
1992;DHT22;997;48.448;8.924;2023-04-05T15:26:17;18.50;49.70
1992;DHT22;997;48.448;8.924;2023-04-05T15:28:43;19.20;48.10
1992;DHT22;997;48.448;8.924;2023-04-05T15:34:30;19.10;42.40
1992;DHT22;997;48.448;8.924;2023-04-05T15:36:56;17.80;41.10
1992;DHT22;997;48.448;8.924;2023-04-05T15:39:23;17.50;41.70
1992;DHT22;997;48.448;8.924;2023-04-05T15:41:49;17.40;42.20
1992;DHT22;997;48.448;8.924;2023-04-05T15:44:15;17.20;43.10
1992;DHT22;997;48.448;8.924;2023-04-05T15:46:41;17.90;45.40
1992;DHT22;997;48.448;8.924;2023-04-05T15:49:07;18.30;41.90
1992;DHT22;997;48.448;8.924;2023-04-05T15:51:34;19.00;44.30
1992;DHT22;997;48.448;8.924;2023-04-05T15:54:00;19.60;42.20
1992;DHT22;997;48.448;8.924;2023-04-05T15:56:26;20.30;41.00
1992;DHT22;997;48.448;8.924;2023-04-05T15:58:52;20.40;39.60
1992;DHT22;997;48.448;8.924;2023-04-05T16:01:18;20.30;38.40
1992;DHT22;997;48.448;8.924;2023-04-05T16:03:43;20.30;42.10
1992;DHT22;997;48.448;8.924;2023-04-05T16:06:09;20.70;41.10
1992;DHT22;997;48.448;8.924;2023-04-05T16:08:35;21.10;41.60
1992;DHT22;997;48.448;8.924;2023-04-05T16:11:01;21.50;40.00
1992;DHT22;997;48.448;8.924;2023-04-05T16:13:27;21.70;37.80
1992;DHT22;997;48.448;8.924;2023-04-05T16:15:52;22.20;39.90
1992;DHT22;997;48.448;8.924;2023-04-05T16:18:18;22.60;39.00
1992;DHT22;997;48.448;8.924;2023-04-05T16:20:46;22.50;37.00
1992;DHT22;997;48.448;8.924;2023-04-05T16:23:12;22.50;37.60
1992;DHT22;997;48.448;8.924;2023-04-05T16:25:39;22.50;36.40
1992;DHT22;997;48.448;8.924;2023-04-05T16:28:05;22.60;36.20
1992;DHT22;997;48.448;8.924;2023-04-05T16:30:31;22.30;35.90
1992;DHT22;997;48.448;8.924;2023-04-05T16:32:57;22.40;37.10
1992;DHT22;997;48.448;8.924;2023-04-05T16:35:23;22.10;37.10
1992;DHT22;997;48.448;8.924;2023-04-05T16:37:49;22.10;37.10
1992;DHT22;997;48.448;8.924;2023-04-05T16:40:14;21.80;37.30
1992;DHT22;997;48.448;8.924;2023-04-05T16:42:41;21.80;38.30
1992;DHT22;997;48.448;8.924;2023-04-05T16:45:07;21.80;37.90
1992;DHT22;997;48.448;8.924;2023-04-05T16:47:33;22.10;36.90
1992;DHT22;997;48.448;8.924;2023-04-05T16:49:58;22.20;36.20
1992;DHT22;997;48.448;8.924;2023-04-05T16:52:24;22.00;35.00
1992;DHT22;997;48.448;8.924;2023-04-05T16:54:50;22.00;35.70
1992;DHT22;997;48.448;8.924;2023-04-05T16:57:16;22.20;36.20
1992;DHT22;997;48.448;8.924;2023-04-05T16:59:41;21.90;35.40
1992;DHT22;997;48.448;8.924;2023-04-05T17:02:07;20.90;35.40
1992;DHT22;997;48.448;8.924;2023-04-05T17:04:33;20.00;36.10
1992;DHT22;997;48.448;8.924;2023-04-05T17:06:59;19.10;36.40
1992;DHT22;997;48.448;8.924;2023-04-05T17:09:25;18.50;36.10
1992;DHT22;997;48.448;8.924;2023-04-05T17:11:57;17.60;37.10
1992;DHT22;997;48.448;8.924;2023-04-05T17:14:22;17.00;38.10
1992;DHT22;997;48.448;8.924;2023-04-05T17:16:48;16.30;38.90
1992;DHT22;997;48.448;8.924;2023-04-05T17:19:14;15.40;38.20
1992;DHT22;997;48.448;8.924;2023-04-05T17:21:40;14.80;40.30
1992;DHT22;997;48.448;8.924;2023-04-05T17:24:07;14.40;41.30
1992;DHT22;997;48.448;8.924;2023-04-05T17:26:33;13.80;40.80
1992;DHT22;997;48.448;8.924;2023-04-05T17:28:59;13.40;40.40
1992;DHT22;997;48.448;8.924;2023-04-05T17:31:24;13.00;42.30
1992;DHT22;997;48.448;8.924;2023-04-05T17:33:50;12.80;41.90
1992;DHT22;997;48.448;8.924;2023-04-05T17:36:16;12.60;42.80
1992;DHT22;997;48.448;8.924;2023-04-05T17:38:42;12.40;43.40
1992;DHT22;997;48.448;8.924;2023-04-05T17:41:08;12.20;44.00
1992;DHT22;997;48.448;8.924;2023-04-05T17:43:34;12.00;43.30
1992;DHT22;997;48.448;8.924;2023-04-05T17:46:01;11.90;44.60
1992;DHT22;997;48.448;8.924;2023-04-05T17:48:27;11.90;44.70
1992;DHT22;997;48.448;8.924;2023-04-05T17:50:54;11.70;45.00
1992;DHT22;997;48.448;8.924;2023-04-05T17:53:20;11.70;45.80
1992;DHT22;997;48.448;8.924;2023-04-05T17:55:46;11.60;46.80
1992;DHT22;997;48.448;8.924;2023-04-05T17:58:12;11.60;47.00
1992;DHT22;997;48.448;8.924;2023-04-05T18:00:38;11.60;47.30
1992;DHT22;997;48.448;8.924;2023-04-05T18:03:04;11.60;47.60
1992;DHT22;997;48.448;8.924;2023-04-05T18:05:30;11.40;47.10
1992;DHT22;997;48.448;8.924;2023-04-05T18:07:55;11.20;47.20
1992;DHT22;997;48.448;8.924;2023-04-05T18:10:21;11.10;47.70
1992;DHT22;997;48.448;8.924;2023-04-05T18:12:48;10.70;47.30
1992;DHT22;997;48.448;8.924;2023-04-05T18:15:14;10.40;47.50
1992;DHT22;997;48.448;8.924;2023-04-05T18:17:41;10.30;47.30
1992;DHT22;997;48.448;8.924;2023-04-05T18:20:09;10.00;47.50
1992;DHT22;997;48.448;8.924;2023-04-05T18:22:35;9.80;49.30
1992;DHT22;997;48.448;8.924;2023-04-05T18:25:01;9.70;50.30
1992;DHT22;997;48.448;8.924;2023-04-05T18:27:27;9.70;50.20
1992;DHT22;997;48.448;8.924;2023-04-05T18:29:53;9.60;50.40
1992;DHT22;997;48.448;8.924;2023-04-05T18:32:19;9.60;50.50
1992;DHT22;997;48.448;8.924;2023-04-05T18:34:44;9.40;49.70
1992;DHT22;997;48.448;8.924;2023-04-05T18:37:10;9.40;50.80
1992;DHT22;997;48.448;8.924;2023-04-05T18:39:36;9.40;50.70
1992;DHT22;997;48.448;8.924;2023-04-05T18:42:01;9.40;51.70
1992;DHT22;997;48.448;8.924;2023-04-05T18:44:27;9.50;51.50
1992;DHT22;997;48.448;8.924;2023-04-05T18:46:53;9.40;51.00
1992;DHT22;997;48.448;8.924;2023-04-05T18:49:19;9.20;50.30
1992;DHT22;997;48.448;8.924;2023-04-05T18:51:45;9.20;50.60
1992;DHT22;997;48.448;8.924;2023-04-05T18:54:13;9.20;52.00
1992;DHT22;997;48.448;8.924;2023-04-05T18:56:40;9.30;52.90
1992;DHT22;997;48.448;8.924;2023-04-05T18:59:06;9.30;53.70
1992;DHT22;997;48.448;8.924;2023-04-05T19:01:32;9.40;53.90
1992;DHT22;997;48.448;8.924;2023-04-05T19:03:58;9.40;54.30
1992;DHT22;997;48.448;8.924;2023-04-05T19:06:25;9.40;53.60
1992;DHT22;997;48.448;8.924;2023-04-05T19:08:50;9.30;53.10
1992;DHT22;997;48.448;8.924;2023-04-05T19:11:16;9.20;52.90
1992;DHT22;997;48.448;8.924;2023-04-05T19:13:43;9.00;52.50
1992;DHT22;997;48.448;8.924;2023-04-05T19:16:09;8.90;53.20
1992;DHT22;997;48.448;8.924;2023-04-05T19:18:35;8.80;53.50
1992;DHT22;997;48.448;8.924;2023-04-05T19:21:01;8.60;53.50
1992;DHT22;997;48.448;8.924;2023-04-05T19:23:27;8.40;54.90
1992;DHT22;997;48.448;8.924;2023-04-05T19:25:57;8.40;55.40
1992;DHT22;997;48.448;8.924;2023-04-05T19:28:23;8.30;54.70
1992;DHT22;997;48.448;8.924;2023-04-05T19:30:50;8.10;55.20
1992;DHT22;997;48.448;8.924;2023-04-05T19:33:16;8.00;55.00
1992;DHT22;997;48.448;8.924;2023-04-05T19:35:42;7.90;55.60
1992;DHT22;997;48.448;8.924;2023-04-05T19:38:09;7.80;56.00
1992;DHT22;997;48.448;8.924;2023-04-05T19:40:37;7.90;56.00
1992;DHT22;997;48.448;8.924;2023-04-05T19:43:03;8.10;56.60
1992;DHT22;997;48.448;8.924;2023-04-05T19:45:30;8.20;57.00
1992;DHT22;997;48.448;8.924;2023-04-05T19:47:58;8.30;57.60
1992;DHT22;997;48.448;8.924;2023-04-05T19:52:58;8.30;57.00
1992;DHT22;997;48.448;8.924;2023-04-05T19:57:51;8.30;57.40
1992;DHT22;997;48.448;8.924;2023-04-05T20:00:34;8.20;57.50
1992;DHT22;997;48.448;8.924;2023-04-05T20:03:16;8.00;58.50
1992;DHT22;997;48.448;8.924;2023-04-05T20:08:11;7.90;59.90
1992;DHT22;997;48.448;8.924;2023-04-05T20:10:41;7.80;60.00
1992;DHT22;997;48.448;8.924;2023-04-05T20:13:07;7.80;59.10
1992;DHT22;997;48.448;8.924;2023-04-05T20:15:36;7.70;58.60
1992;DHT22;997;48.448;8.924;2023-04-05T20:18:08;7.70;58.00
1992;DHT22;997;48.448;8.924;2023-04-05T20:20:36;7.60;57.60
1992;DHT22;997;48.448;8.924;2023-04-05T20:23:06;7.40;57.30
1992;DHT22;997;48.448;8.924;2023-04-05T20:25:36;7.40;58.00
1992;DHT22;997;48.448;8.924;2023-04-05T20:28:26;7.30;57.00
1992;DHT22;997;48.448;8.924;2023-04-05T20:30:53;7.30;56.90
1992;DHT22;997;48.448;8.924;2023-04-05T20:33:44;7.30;57.20
1992;DHT22;997;48.448;8.924;2023-04-05T20:36:11;6.90;56.90
1992;DHT22;997;48.448;8.924;2023-04-05T20:38:40;6.80;57.30
1992;DHT22;997;48.448;8.924;2023-04-05T20:41:07;6.70;58.60
1992;DHT22;997;48.448;8.924;2023-04-05T20:43:33;6.50;57.90
1992;DHT22;997;48.448;8.924;2023-04-05T20:46:00;6.50;58.90
1992;DHT22;997;48.448;8.924;2023-04-05T20:48:30;6.40;58.50
1992;DHT22;997;48.448;8.924;2023-04-05T20:50:56;6.20;58.90
1992;DHT22;997;48.448;8.924;2023-04-05T20:53:23;6.20;60.00
1992;DHT22;997;48.448;8.924;2023-04-05T20:55:49;6.10;60.40
1992;DHT22;997;48.448;8.924;2023-04-05T20:58:15;6.10;61.30
1992;DHT22;997;48.448;8.924;2023-04-05T21:00:41;6.20;62.60
1992;DHT22;997;48.448;8.924;2023-04-05T21:03:11;6.20;62.30
1992;DHT22;997;48.448;8.924;2023-04-05T21:05:39;6.30;62.50
1992;DHT22;997;48.448;8.924;2023-04-05T21:08:05;6.30;62.70
1992;DHT22;997;48.448;8.924;2023-04-05T21:10:32;6.40;62.10
1992;DHT22;997;48.448;8.924;2023-04-05T21:12:58;6.50;62.00
1992;DHT22;997;48.448;8.924;2023-04-05T21:15:24;6.40;63.90
1992;DHT22;997;48.448;8.924;2023-04-05T21:17:59;6.50;65.50
1992;DHT22;997;48.448;8.924;2023-04-05T21:20:28;6.50;66.00
1992;DHT22;997;48.448;8.924;2023-04-05T21:22:55;6.50;67.00
1992;DHT22;997;48.448;8.924;2023-04-05T21:25:21;6.40;67.30
1992;DHT22;997;48.448;8.924;2023-04-05T21:27:47;6.40;67.60
